Time;durP1;ratioP1;P1;durP2;ratioP2;P2;SDS_P1;SDS_P2;PMS_P1;PMS_P2;Temp;Humidity;BMP_temperature;BMP_pressure;BME280_temperature;BME280_humidity;BME280_pressure;Samples;Min_cycle;Max_cycle;Signal;HPM_P1;HPM_P2
2023/01/03 00:01:56;;;;;;;11.50;4.10;;;26.30;92.30;;;;;;5104584;28;20119;-56
2023/01/03 00:04:23;;;;;;;12.05;4.35;;;26.40;92.20;;;;;;5103203;28;20032;-55
2023/01/03 00:06:52;;;;;;;7.70;3.75;;;26.50;92.20;;;;;;5104448;28;20035;-55
2023/01/03 00:09:21;;;;;;;11.30;3.60;;;26.50;92.10;;;;;;5104426;28;20077;-56
2023/01/03 00:14:37;;;;;;;7.80;3.75;;;26.50;92.00;;;;;;5104434;28;20221;-57
2023/01/03 00:17:05;;;;;;;7.70;3.35;;;26.60;92.00;;;;;;5103759;28;20102;-57
2023/01/03 00:19:37;;;;;;;7.63;3.20;;;26.60;91.90;;;;;;5104243;28;20129;-57
2023/01/03 00:22:04;;;;;;;5.72;3.35;;;26.60;91.90;;;;;;5104312;28;20028;-57
2023/01/03 00:24:30;;;;;;;7.22;3.17;;;26.60;91.80;;;;;;5103982;28;20031;-59
2023/01/03 00:26:57;;;;;;;5.80;2.88;;;26.60;91.80;;;;;;5104324;28;20012;-57
2023/01/03 00:29:24;;;;;;;9.25;3.40;;;26.60;91.80;;;;;;5104206;28;20063;-57
2023/01/03 00:31:50;;;;;;;7.90;3.40;;;26.60;91.70;;;;;;5103898;28;20016;-57
2023/01/03 00:34:17;;;;;;;8.82;3.28;;;26.60;91.70;;;;;;5104136;28;20035;-55
2023/01/03 00:36:43;;;;;;;6.38;2.90;;;26.60;91.60;;;;;;5104043;28;20042;-57
2023/01/03 00:39:13;;;;;;;5.82;2.97;;;26.60;91.50;;;;;;5103742;28;20036;-55
2023/01/03 00:41:41;;;;;;;4.57;2.88;;;26.60;91.40;;;;;;5103931;28;20083;-57
2023/01/03 00:44:08;;;;;;;7.53;3.17;;;26.60;91.30;;;;;;5103952;28;20042;-56
2023/01/03 00:46:38;;;;;;;4.50;2.55;;;26.60;91.20;;;;;;5103847;28;20023;-56
2023/01/03 00:49:05;;;;;;;4.55;2.70;;;26.60;91.20;;;;;;5104041;28;20335;-57
2023/01/03 00:51:34;;;;;;;5.15;2.60;;;26.60;91.10;;;;;;5097407;28;20039;-57
2023/01/03 00:54:03;;;;;;;4.18;2.70;;;26.50;91.00;;;;;;5092383;28;20194;-57
2023/01/03 00:56:33;;;;;;;9.00;3.08;;;26.50;91.10;;;;;;5083709;28;20103;-57
2023/01/03 00:59:00;;;;;;;4.47;2.65;;;26.50;90.80;;;;;;5065801;28;20261;-57
2023/01/03 01:01:28;;;;;;;9.07;3.63;;;26.50;90.70;;;;;;5083456;28;20048;-57
2023/01/03 01:04:06;;;;;;;6.95;3.30;;;26.50;90.60;;;;;;5083995;28;20032;-57
2023/01/03 01:06:35;;;;;;;6.07;3.38;;;26.50;90.60;;;;;;5083458;28;20198;-55
2023/01/03 01:09:03;;;;;;;6.68;3.42;;;26.50;90.60;;;;;;5087446;28;20044;-57
2023/01/03 01:11:30;;;;;;;6.35;3.03;;;26.50;90.60;;;;;;5087448;28;20039;-55
2023/01/03 01:13:57;;;;;;;5.07;3.20;;;26.50;90.60;;;;;;5087818;28;20036;-55
2023/01/03 01:16:29;;;;;;;4.45;2.45;;;26.40;90.40;;;;;;5087452;28;20206;-60
2023/01/03 01:18:57;;;;;;;6.10;2.75;;;26.40;90.30;;;;;;5087185;28;20194;-58
2023/01/03 01:21:27;;;;;;;6.47;2.65;;;26.40;90.20;;;;;;5087241;28;20047;-54
2023/01/03 01:23:53;;;;;;;6.95;2.75;;;26.40;90.10;;;;;;5087761;28;20017;-56
2023/01/03 01:26:22;;;;;;;12.32;2.58;;;26.40;90.00;;;;;;5087250;28;20020;-57
2023/01/03 01:28:51;;;;;;;15.82;2.88;;;26.40;89.90;;;;;;5087442;28;20032;-56
2023/01/03 01:31:21;;;;;;;13.13;3.08;;;26.40;89.70;;;;;;5087145;28;20321;-59
2023/01/03 01:33:47;;;;;;;10.00;2.88;;;26.40;89.60;;;;;;5087561;28;20095;-56
2023/01/03 01:36:20;;;;;;;7.50;2.95;;;26.40;89.50;;;;;;5086853;28;20059;-54
2023/01/03 01:38:51;;;;;;;12.52;2.72;;;26.40;89.40;;;;;;5087365;28;20130;-54
2023/01/03 01:44:36;;;;;;;8.18;2.40;;;26.40;89.10;;;;;;5086785;28;20043;-54
2023/01/03 01:44:39;;;;;;;11.13;2.80;;;26.40;88.90;;;;;;5086677;28;20090;-54
2023/01/03 01:47:11;;;;;;;6.10;2.70;;;26.30;88.70;;;;;;5086709;28;20036;-56
2023/01/03 01:49:38;;;;;;;7.40;2.58;;;26.30;88.70;;;;;;5086654;28;20075;-53
2023/01/03 01:52:05;;;;;;;15.25;3.85;;;26.30;88.80;;;;;;5086840;28;20055;-56
2023/01/03 01:54:32;;;;;;;9.85;3.25;;;26.30;88.90;;;;;;5116006;28;20058;-57
2023/01/03 01:56:59;;;;;;;7.57;2.80;;;26.30;88.90;;;;;;5103756;28;20050;-54
2023/01/03 01:59:27;;;;;;;7.55;2.88;;;26.30;88.60;;;;;;5102197;28;20032;-54
2023/01/03 02:01:54;;;;;;;6.63;2.58;;;26.30;88.50;;;;;;5101038;28;20020;-54
2023/01/03 02:04:28;;;;;;;5.38;2.17;;;26.30;88.50;;;;;;5091321;28;20032;-52
2023/01/03 02:06:57;;;;;;;8.10;2.72;;;26.40;88.20;;;;;;5086458;28;20305;-55
2023/01/03 02:09:23;;;;;;;5.90;2.65;;;26.40;88.10;;;;;;5086441;28;20037;-55
2023/01/03 02:15:16;;;;;;;4.20;2.45;;;26.30;88.00;;;;;;5086771;28;20079;-54
2023/01/03 02:18:08;;;;;;;6.30;2.42;;;26.30;88.00;;;;;;5086128;28;20067;-57
2023/01/03 02:20:45;;;;;;;;;;;26.30;88.10;;;;;;5086590;28;20056;-54
2023/01/03 02:24:00;;;;;;;5.65;2.25;;;26.30;88.00;;;;;;5086448;28;19900;-55
2023/01/03 02:27:12;;;;;;;5.93;1.90;;;26.30;88.00;;;;;;5080976;28;20032;-55
2023/01/03 02:30:03;;;;;;;6.05;2.08;;;26.30;87.90;;;;;;5041602;28;20063;-53
2023/01/03 02:32:44;;;;;;;4.88;1.95;;;26.30;87.80;;;;;;5091691;28;20024;-56
2023/01/03 02:35:48;;;;;;;3.88;1.92;;;26.30;87.90;;;;;;5098570;28;20247;-54
2023/01/03 02:38:38;;;;;;;4.50;1.77;;;26.30;87.50;;;;;;5085543;28;20092;-53
2023/01/03 02:41:23;;;;;;;5.85;2.17;;;26.30;87.60;;;;;;5085917;28;20115;-55
2023/01/03 02:44:05;;;;;;;4.80;1.85;;;26.30;87.50;;;;;;5093807;28;20024;-57
2023/01/03 02:46:44;;;;;;;3.58;1.98;;;26.20;87.60;;;;;;5097360;28;20018;-56
2023/01/03 02:49:28;;;;;;;4.30;1.88;;;26.30;87.70;;;;;;5096988;28;20039;-57
2023/01/03 02:52:03;;;;;;;3.30;1.85;;;26.30;87.60;;;;;;5096703;28;20329;-56
2023/01/03 02:54:37;;;;;;;7.10;2.28;;;26.20;87.60;;;;;;5088071;28;20044;-58
2023/01/03 02:57:41;;;;;;;3.65;1.95;;;26.10;87.60;;;;;;5085413;28;20031;-55
2023/01/03 03:00:14;;;;;;;5.15;2.22;;;26.20;87.80;;;;;;5072798;28;20071;-56
2023/01/03 03:02:44;;;;;;;7.88;2.10;;;26.10;87.90;;;;;;5085441;28;20043;-54
2023/01/03 03:05:18;;;;;;;5.85;2.05;;;26.10;87.90;;;;;;5096800;28;20071;-56
2023/01/03 03:07:45;;;;;;;6.93;2.10;;;26.10;87.90;;;;;;5085367;28;20008;-56
2023/01/03 03:13:22;;;;;;;4.93;2.13;;;26.10;88.00;;;;;;5095739;28;20059;-55
2023/01/03 03:16:10;;;;;;;5.05;1.95;;;26.00;88.00;;;;;;5089365;28;20056;-54
2023/01/03 03:18:57;;;;;;;4.65;2.22;;;26.00;87.90;;;;;;5089098;28;20343;-57
2023/01/03 03:30:03;;;;;;;7.20;2.70;;;26.00;88.30;;;;;;5086224;28;20081;-58
2023/01/03 03:32:33;;;;;;;6.80;1.95;;;26.00;88.40;;;;;;5094742;28;20032;-57
2023/01/03 03:35:03;;;;;;;5.00;2.10;;;26.00;88.20;;;;;;5096892;28;20016;-55
2023/01/03 03:37:31;;;;;;;5.68;1.92;;;26.00;88.10;;;;;;5085032;28;20058;-55
2023/01/03 03:46:13;;;;;;;7.90;2.15;;;26.00;88.00;;;;;;5084531;28;20113;-54
2023/01/03 03:51:47;;;;;;;8.88;3.60;;;26.00;87.90;;;;;;5084363;28;20083;-57
2023/01/03 03:54:18;;;;;;;7.13;3.67;;;26.00;87.90;;;;;;5084591;28;20143;-55
2023/01/03 03:56:51;;;;;;;7.60;4.05;;;26.00;88.70;;;;;;5084319;28;20027;-58
2023/01/03 03:59:20;;;;;;;5.95;3.63;;;26.00;88.30;;;;;;5084125;28;20078;-57
2023/01/03 04:01:48;;;;;;;6.10;3.60;;;26.00;88.20;;;;;;5091161;28;20032;-56
2023/01/03 04:04:29;;;;;;;4.88;3.53;;;25.90;88.10;;;;;;5093248;28;20051;-56
2023/01/03 04:06:56;;;;;;;5.60;2.70;;;25.90;88.10;;;;;;5097111;28;20042;-56
2023/01/03 04:09:22;;;;;;;4.22;2.30;;;26.00;88.10;;;;;;5093857;28;20055;-55
2023/01/03 04:11:49;;;;;;;4.78;2.15;;;26.00;88.00;;;;;;5094963;28;20055;-57
2023/01/03 04:14:15;;;;;;;6.30;2.15;;;26.00;87.90;;;;;;5090161;28;20036;-56
2023/01/03 04:16:42;;;;;;;5.65;2.33;;;26.00;87.80;;;;;;5089421;28;20328;-55
2023/01/03 04:19:08;;;;;;;5.72;2.03;;;26.00;87.80;;;;;;5083922;28;20108;-58
2023/01/03 04:21:36;;;;;;;6.13;2.15;;;26.00;87.70;;;;;;5094837;28;20238;-55
2023/01/03 04:24:04;;;;;;;5.05;2.20;;;26.00;87.60;;;;;;5094524;28;20024;-59
2023/01/03 04:26:31;;;;;;;7.10;2.38;;;26.00;87.60;;;;;;5090688;28;20317;-57
2023/01/03 04:28:57;;;;;;;3.28;1.83;;;26.00;87.40;;;;;;5094833;28;20047;-56
2023/01/03 04:31:24;;;;;;;5.57;1.63;;;26.00;87.20;;;;;;5084017;28;20036;-59
2023/01/03 04:33:52;;;;;;;4.35;1.70;;;26.00;87.10;;;;;;5084248;28;20024;-54
2023/01/03 04:36:20;;;;;;;5.30;2.15;;;26.00;87.30;;;;;;5083837;28;20032;-56
2023/01/03 04:38:46;;;;;;;4.13;1.90;;;26.00;87.40;;;;;;5084293;28;20054;-56
2023/01/03 04:41:13;;;;;;;6.72;1.90;;;26.00;87.80;;;;;;5083625;28;20080;-54
2023/01/03 04:46:24;;;;;;;6.45;1.95;;;26.00;86.90;;;;;;5095710;28;20047;-56
2023/01/03 04:48:51;;;;;;;2.92;1.60;;;26.00;87.00;;;;;;5086248;28;20016;-56
2023/01/03 04:51:18;;;;;;;3.85;1.83;;;25.90;87.10;;;;;;5088555;28;20083;-55
2023/01/03 04:53:44;;;;;;;5.40;1.67;;;26.00;87.10;;;;;;5094449;28;20051;-55
2023/01/03 04:56:11;;;;;;;6.80;1.90;;;26.00;87.30;;;;;;5094772;28;20274;-56
2023/01/03 04:58:38;;;;;;;3.70;1.85;;;26.00;87.60;;;;;;5095083;28;20016;-55
2023/01/03 05:01:09;;;;;;;5.00;1.83;;;26.00;87.60;;;;;;5092568;28;20092;-56
2023/01/03 05:03:36;;;;;;;4.57;1.60;;;26.00;87.50;;;;;;5094889;28;20020;-55
2023/01/03 05:06:06;;;;;;;5.78;1.83;;;25.90;87.60;;;;;;5094696;28;20033;-55
2023/01/03 05:08:33;;;;;;;7.10;2.00;;;26.00;87.90;;;;;;5089566;28;20020;-54
2023/01/03 05:11:00;;;;;;;6.07;2.05;;;26.00;87.90;;;;;;5089738;28;20024;-55
2023/01/03 05:13:27;;;;;;;3.60;1.80;;;26.00;87.90;;;;;;5083805;28;20043;-56
2023/01/03 05:15:53;;;;;;;4.28;2.03;;;25.90;87.80;;;;;;5089534;28;20034;-57
2023/01/03 05:18:20;;;;;;;5.30;1.70;;;26.00;87.90;;;;;;5073735;28;20024;-55
2023/01/03 05:26:18;;;;;;;3.47;2.03;;;25.90;87.90;;;;;;5083466;28;20028;-54
2023/01/03 05:28:49;;;;;;;6.32;1.90;;;25.90;88.00;;;;;;5084509;28;20056;-52
2023/01/03 05:31:16;;;;;;;2.88;1.75;;;25.90;88.20;;;;;;5094458;28;20032;-54
2023/01/03 05:33:43;;;;;;;3.55;1.80;;;25.90;88.20;;;;;;5094283;28;20217;-54
2023/01/03 05:36:10;;;;;;;3.50;1.80;;;25.90;88.40;;;;;;5094101;28;20374;-53
2023/01/03 05:38:37;;;;;;;3.72;1.77;;;25.90;88.30;;;;;;5093151;28;20084;-53
2023/01/03 05:41:04;;;;;;;5.93;1.88;;;25.90;88.10;;;;;;5086006;28;20036;-54
2023/01/03 05:43:31;;;;;;;6.68;1.90;;;25.90;88.10;;;;;;5094588;28;20042;-54
2023/01/03 05:45:57;;;;;;;3.92;1.98;;;25.90;88.10;;;;;;5094860;28;20036;-53
2023/01/03 05:48:24;;;;;;;4.70;1.60;;;25.90;88.20;;;;;;5092687;28;20074;-52
2023/01/03 05:50:51;;;;;;;3.05;1.75;;;25.90;88.20;;;;;;5103214;28;20205;-53
2023/01/03 05:53:17;;;;;;;5.68;1.80;;;25.90;88.20;;;;;;5104732;28;20056;-53
2023/01/03 05:55:44;;;;;;;4.55;1.67;;;25.90;88.10;;;;;;5107169;28;20036;-54
2023/01/03 05:58:11;;;;;;;4.18;1.90;;;25.80;88.00;;;;;;5107182;28;20055;-54
2023/01/03 06:00:38;;;;;;;5.30;1.95;;;25.80;88.00;;;;;;5100296;28;20051;-53
2023/01/03 06:03:04;;;;;;;5.32;1.90;;;25.80;88.10;;;;;;5100231;28;20020;-55
2023/01/03 06:05:31;;;;;;;6.07;2.00;;;25.80;88.10;;;;;;5091577;28;20375;-58
2023/01/03 06:08:01;;;;;;;6.03;2.63;;;25.80;88.20;;;;;;5086854;28;20027;-58
2023/01/03 06:10:27;;;;;;;6.35;2.70;;;25.80;88.20;;;;;;5086398;28;20020;-56
2023/01/03 06:12:54;;;;;;;3.78;2.20;;;25.80;88.10;;;;;;5086545;28;20033;-55
2023/01/03 06:15:20;;;;;;;5.75;2.08;;;25.80;88.20;;;;;;5086381;28;20092;-54
2023/01/03 06:18:01;;;;;;;5.15;1.90;;;25.80;88.30;;;;;;5086597;28;20027;-54
2023/01/03 06:20:28;;;;;;;4.88;2.22;;;25.80;88.30;;;;;;5086072;28;20036;-56
2023/01/03 06:22:55;;;;;;;5.13;2.17;;;25.80;88.50;;;;;;5086514;28;20311;-54
2023/01/03 06:25:22;;;;;;;2.80;1.80;;;25.80;88.50;;;;;;5086233;28;20037;-54
2023/01/03 06:27:48;;;;;;;5.00;1.77;;;25.80;88.50;;;;;;5086193;28;20016;-55
2023/01/03 06:30:15;;;;;;;4.18;1.90;;;25.80;88.60;;;;;;5088778;28;20355;-56
2023/01/03 06:32:43;;;;;;;6.47;1.70;;;25.80;88.60;;;;;;5099309;28;20078;-54
2023/01/03 06:35:09;;;;;;;5.90;1.48;;;25.80;88.70;;;;;;5094352;28;20016;-56
2023/01/03 06:37:36;;;;;;;4.25;1.70;;;25.80;88.70;;;;;;5106483;28;20028;-57
2023/01/03 06:40:03;;;;;;;4.68;1.90;;;25.80;88.70;;;;;;5106041;28;20056;-54
2023/01/03 06:42:38;;;;;;;7.22;2.13;;;25.80;88.80;;;;;;5106076;28;20008;-55
2023/01/03 06:53:26;;;;;;;3.83;1.42;;;25.80;89.20;;;;;;5089795;28;20062;-55
2023/01/03 06:55:52;;;;;;;4.43;1.77;;;25.70;89.70;;;;;;5085621;28;20025;-55
2023/01/03 06:58:19;;;;;;;4.72;1.90;;;25.70;89.00;;;;;;5085744;28;20134;-55
2023/01/03 07:00:46;;;;;;;3.67;1.50;;;25.70;88.90;;;;;;5085439;28;20079;-55
2023/01/03 07:03:12;;;;;;;3.83;1.58;;;25.70;88.90;;;;;;5085772;28;20072;-56
2023/01/03 07:05:39;;;;;;;2.55;1.60;;;25.80;88.90;;;;;;5084403;28;20029;-56
2023/01/03 07:08:07;;;;;;;8.10;1.67;;;25.80;88.70;;;;;;5085686;28;20016;-54
2023/01/03 07:10:33;;;;;;;5.68;1.77;;;25.80;88.60;;;;;;5085228;28;20075;-53
2023/01/03 07:15:45;;;;;;;3.58;1.60;;;25.80;88.30;;;;;;5085224;28;20039;-55
2023/01/03 07:18:12;;;;;;;4.70;1.60;;;25.80;88.20;;;;;;5085376;28;20077;-55
2023/01/03 07:20:43;;;;;;;3.33;1.40;;;25.80;88.20;;;;;;5085034;28;20078;-54
2023/01/03 07:23:11;;;;;;;4.00;1.23;;;25.80;88.20;;;;;;5085460;28;20028;-53
2023/01/03 07:25:41;;;;;;;5.82;1.70;;;25.80;88.30;;;;;;5084921;28;20012;-53
2023/01/03 07:28:12;;;;;;;5.15;1.58;;;25.80;88.30;;;;;;5085168;28;20025;-52
2023/01/03 07:30:45;;;;;;;2.65;1.50;;;25.80;88.30;;;;;;5084861;28;20339;-53
2023/01/03 07:33:13;;;;;;;4.22;1.90;;;25.80;88.40;;;;;;5085098;28;20028;-53
2023/01/03 07:35:40;;;;;;;5.00;1.85;;;25.80;88.40;;;;;;5084724;28;20031;-54
2023/01/03 07:38:08;;;;;;;3.65;1.48;;;25.80;88.40;;;;;;5084901;28;20039;-53
2023/01/03 07:40:35;;;;;;;5.10;1.88;;;25.80;88.30;;;;;;5084767;28;20383;-56
2023/01/03 07:45:46;;;;;;;3.88;1.77;;;25.80;88.60;;;;;;5093650;28;20032;-53
2023/01/03 07:48:14;;;;;;;4.97;2.13;;;25.80;88.50;;;;;;5097864;28;20339;-58
2023/01/03 07:50:41;;;;;;;5.35;1.88;;;25.80;88.40;;;;;;5084317;28;20313;-54
2023/01/03 07:53:08;;;;;;;6.57;1.67;;;25.80;88.50;;;;;;5084715;28;20110;-53
2023/01/03 07:55:36;;;;;;;4.40;1.50;;;25.80;88.70;;;;;;5084394;28;20325;-53
2023/01/03 07:58:03;;;;;;;5.63;1.60;;;25.80;88.60;;;;;;5084642;28;20174;-53
2023/01/03 08:00:30;;;;;;;4.47;1.70;;;25.80;88.50;;;;;;5084191;28;20047;-57
2023/01/03 08:02:56;;;;;;;6.30;1.75;;;25.80;88.50;;;;;;5084688;28;20028;-57
2023/01/03 08:05:24;;;;;;;2.38;1.63;;;25.80;88.60;;;;;;5084346;28;20091;-53
2023/01/03 08:07:51;;;;;;;6.70;1.60;;;25.80;88.60;;;;;;5084312;28;20297;-54
2023/01/03 08:13:17;;;;;;;7.63;1.90;;;25.70;88.60;;;;;;5083986;28;20447;-53
2023/01/03 08:15:51;;;;;;;5.75;1.60;;;25.70;88.90;;;;;;5083890;28;20039;-53
2023/01/03 08:18:37;;;;;;;4.97;1.88;;;25.70;89.00;;;;;;5084354;28;20275;-53
2023/01/03 08:21:04;;;;;;;8.65;1.52;;;25.70;89.10;;;;;;5083900;28;20033;-54
2023/01/03 08:23:30;;;;;;;3.13;1.38;;;25.80;89.30;;;;;;5084299;28;20013;-53
2023/01/03 08:26:02;;;;;;;6.97;1.77;;;25.70;89.30;;;;;;5084010;28;20091;-56
2023/01/03 08:28:30;;;;;;;3.90;1.48;;;25.70;89.40;;;;;;5088918;28;20044;-53
2023/01/03 08:30:58;;;;;;;4.28;1.58;;;25.70;89.40;;;;;;5092835;28;20036;-53
2023/01/03 08:33:26;;;;;;;6.97;1.77;;;25.70;89.40;;;;;;5095595;28;20047;-53
2023/01/03 08:36:02;;;;;;;4.90;1.92;;;25.70;89.60;;;;;;5088842;28;20025;-55
2023/01/03 08:38:43;;;;;;;6.60;1.80;;;25.70;89.70;;;;;;5096785;28;20103;-54
2023/01/03 08:41:12;;;;;;;6.88;1.60;;;25.70;89.90;;;;;;5103548;28;20216;-53
2023/01/03 08:43:41;;;;;;;5.25;1.70;;;25.70;89.90;;;;;;5104464;28;20355;-53
2023/01/03 08:46:11;;;;;;;5.78;1.48;;;25.70;89.80;;;;;;5104281;28;20016;-54
2023/01/03 08:48:37;;;;;;;5.40;1.95;;;25.60;89.80;;;;;;5104638;28;20103;-53
2023/01/03 08:51:04;;;;;;;6.13;1.88;;;25.70;89.80;;;;;;5102949;28;20095;-55
2023/01/03 08:53:31;;;;;;;4.10;1.48;;;25.60;89.60;;;;;;5104133;28;20048;-54
2023/01/03 08:55:57;;;;;;;5.82;1.92;;;25.60;89.60;;;;;;5103804;28;20044;-52
2023/01/03 08:58:24;;;;;;;7.15;1.90;;;25.60;89.60;;;;;;5104431;28;20031;-54
2023/01/03 09:00:50;;;;;;;6.63;1.88;;;25.60;89.50;;;;;;5103866;28;20032;-55
2023/01/03 09:03:18;;;;;;;4.50;1.67;;;25.60;89.40;;;;;;5104159;28;20016;-51
2023/01/03 09:05:45;;;;;;;4.82;1.90;;;25.60;89.40;;;;;;5103782;28;20039;-54
2023/01/03 09:08:11;;;;;;;7.53;1.77;;;25.60;89.30;;;;;;5104024;28;20024;-54
2023/01/03 09:10:39;;;;;;;6.45;1.73;;;25.50;89.30;;;;;;5096123;28;20076;-53
2023/01/03 09:13:05;;;;;;;6.72;1.80;;;25.60;89.50;;;;;;5083678;28;20096;-54
2023/01/03 09:15:32;;;;;;;4.82;1.65;;;25.60;89.60;;;;;;5083357;28;20032;-52
2023/01/03 09:17:58;;;;;;;3.95;1.63;;;25.50;89.60;;;;;;5095740;28;20034;-53
2023/01/03 09:20:25;;;;;;;4.13;1.70;;;25.50;89.70;;;;;;5092481;28;20040;-53
2023/01/03 09:22:52;;;;;;;5.10;2.00;;;25.50;89.80;;;;;;5095715;28;20024;-56
2023/01/03 09:25:18;;;;;;;6.30;1.75;;;25.50;90.00;;;;;;5084802;28;20037;-57
2023/01/03 09:27:47;;;;;;;4.90;1.80;;;25.50;90.00;;;;;;5083696;28;20048;-54
2023/01/03 09:30:15;;;;;;;6.32;2.08;;;25.50;89.80;;;;;;5087222;28;20201;-53
2023/01/03 09:32:41;;;;;;;5.80;2.17;;;25.50;89.60;;;;;;5087318;28;20042;-54
2023/01/03 09:35:08;;;;;;;3.97;1.70;;;25.50;89.50;;;;;;5086873;28;20020;-57
2023/01/03 09:37:35;;;;;;;5.88;1.65;;;25.60;89.50;;;;;;5087245;28;20054;-53
2023/01/03 09:40:03;;;;;;;6.03;1.83;;;25.60;89.30;;;;;;5096918;28;20095;-54
2023/01/03 09:43:14;;;;;;;4.60;1.75;;;25.60;89.20;;;;;;5100504;28;20030;-54
2023/01/03 09:45:28;;;;;;;5.07;1.60;;;25.60;88.80;;;;;;5086164;28;20036;-55
2023/01/03 09:47:56;;;;;;;4.20;1.40;;;25.60;88.60;;;;;;5097576;28;20028;-54
2023/01/03 09:50:26;;;;;;;6.43;1.77;;;25.60;88.30;;;;;;5096830;28;20047;-55
2023/01/03 10:05:43;;;;;;;3.38;1.42;;;25.60;87.70;;;;;;5086569;28;20078;-56
2023/01/03 10:08:33;;;;;;;3.70;1.27;;;25.60;87.60;;;;;;5086738;28;20032;-55
2023/01/03 10:11:21;;;;;;;5.88;1.40;;;25.60;87.90;;;;;;5088699;28;20056;-53
2023/01/03 10:14:02;;;;;;;4.40;1.27;;;25.60;87.80;;;;;;5096927;28;20069;-53
2023/01/03 10:16:53;;;;;;;4.35;1.50;;;25.60;87.90;;;;;;5097168;28;20096;-54
2023/01/03 10:19:33;;;;;;;4.20;1.50;;;25.60;88.10;;;;;;5091131;28;20340;-55
2023/01/03 10:22:20;;;;;;;5.60;1.48;;;25.60;88.30;;;;;;5086332;28;20375;-54
2023/01/03 10:25:03;;;;;;;6.60;1.30;;;25.60;88.30;;;;;;5086183;28;20032;-55
2023/01/03 10:27:37;;;;;;;5.53;1.60;;;25.60;88.30;;;;;;5086254;28;20048;-53
2023/01/03 10:30:12;;;;;;;5.60;1.73;;;25.60;88.60;;;;;;5086128;28;20052;-56
2023/01/03 10:32:59;;;;;;;4.97;1.60;;;25.60;88.90;;;;;;5086222;28;20074;-53
2023/01/03 10:35:36;;;;;;;4.13;1.63;;;25.50;88.90;;;;;;5088811;28;20077;-53
2023/01/03 10:38:03;;;;;;;7.82;1.60;;;25.50;89.20;;;;;;5098214;28;20032;-49
2023/01/03 10:40:41;;;;;;;10.15;1.45;;;25.50;89.50;;;;;;5093091;28;20323;-58
2023/01/03 10:43:12;;;;;;;6.15;1.63;;;25.50;89.80;;;;;;5085826;28;20028;-54
2023/01/03 10:45:54;;;;;;;3.17;1.35;;;25.50;89.90;;;;;;5085714;28;20032;-55
2023/01/03 10:48:21;;;;;;;6.47;1.75;;;25.50;90.00;;;;;;5086259;28;20078;-55
2023/01/03 10:50:49;;;;;;;5.03;2.45;;;25.50;90.10;;;;;;5085319;28;20052;-55
2023/01/03 10:53:19;;;;;;;6.25;2.53;;;25.50;90.10;;;;;;5095138;28;20047;-53
2023/01/03 10:55:55;;;;;;;4.85;2.20;;;25.50;90.20;;;;;;5089884;28;20039;-53
2023/01/03 10:58:25;;;;;;;6.45;2.47;;;25.50;90.30;;;;;;5085971;28;20024;-57
2023/01/03 11:01:08;;;;;;;4.88;2.10;;;25.50;90.20;;;;;;5085443;28;20032;-54
2023/01/03 11:03:36;;;;;;;5.18;2.00;;;25.50;90.10;;;;;;5085708;28;20021;-54
2023/01/03 11:06:02;;;;;;;7.95;2.30;;;25.50;90.10;;;;;;5085267;28;20320;-55
2023/01/03 11:08:43;;;;;;;7.40;2.03;;;25.50;90.00;;;;;;5085711;28;20135;-53
2023/01/03 11:11:30;;;;;;;8.95;2.53;;;25.60;89.90;;;;;;5085483;28;20033;-54
2023/01/03 11:14:15;;;;;;;8.52;2.78;;;25.60;89.90;;;;;;5085635;28;20024;-54
2023/01/03 11:16:42;;;;;;;7.03;2.40;;;25.50;90.00;;;;;;5085058;28;20221;-55
2023/01/03 11:19:17;;;;;;;11.80;2.25;;;25.50;89.90;;;;;;5084940;28;20026;-54
2023/01/03 11:22:03;;;;;;;10.20;2.38;;;25.60;90.10;;;;;;5067670;28;20029;-56
2023/01/03 11:24:36;;;;;;;10.90;2.58;;;25.60;90.20;;;;;;5084759;28;20376;-57
2023/01/03 11:27:05;;;;;;;7.10;1.95;;;25.60;90.10;;;;;;5093915;28;20288;-58
2023/01/03 11:29:49;;;;;;;5.85;2.08;;;25.60;90.10;;;;;;5089877;28;20013;-59
2023/01/03 11:32:23;;;;;;;3.42;1.80;;;25.60;90.10;;;;;;5093713;28;20040;-57
2023/01/03 11:35:17;;;;;;;6.40;1.67;;;25.60;90.00;;;;;;5089996;28;20142;-56
2023/01/03 11:38:08;;;;;;;4.75;1.80;;;25.60;90.10;;;;;;5095013;28;20481;-56
2023/01/03 11:40:48;;;;;;;3.38;2.00;;;25.60;90.10;;;;;;5087576;28;20213;-58
2023/01/03 11:43:23;;;;;;;5.20;1.90;;;25.50;90.10;;;;;;5088447;28;20063;-59
2023/01/03 11:46:27;;;;;;;8.25;2.50;;;25.50;90.10;;;;;;5082918;28;20023;-59
2023/01/03 11:49:24;;;;;;;6.47;1.70;;;25.50;90.20;;;;;;5083400;28;20335;-56
2023/01/03 11:52:17;;;;;;;5.72;2.03;;;25.50;90.30;;;;;;5120506;28;20300;-54
2023/01/03 11:55:10;;;;;;;6.97;2.15;;;25.50;90.40;;;;;;5125066;28;20065;-55
2023/01/03 11:57:48;;;;;;;;;;;25.50;90.40;;;;;;5087661;28;20031;-57
2023/01/03 12:00:50;;;;;;;6.13;2.15;;;25.50;90.40;;;;;;5124904;28;19907;-57
2023/01/03 12:03:26;;;;;;;7.10;2.10;;;25.50;90.50;;;;;;5089992;28;20055;-53
2023/01/03 12:06:03;;;;;;;5.03;1.83;;;25.50;90.50;;;;;;5104669;28;20016;-57
2023/01/03 12:08:56;;;;;;;5.28;2.00;;;25.50;90.50;;;;;;5104033;28;20028;-56
2023/01/03 12:11:46;;;;;;;4.40;2.05;;;25.50;90.50;;;;;;5084260;28;20028;-57
2023/01/03 12:14:31;;;;;;;4.18;2.15;;;25.60;90.60;;;;;;5084006;28;20071;-57
2023/01/03 12:17:09;;;;;;;6.88;2.08;;;25.60;90.60;;;;;;5084153;28;20055;-54
2023/01/03 12:19:44;;;;;;;7.53;1.77;;;25.60;90.60;;;;;;5084097;28;20020;-59
2023/01/03 12:22:35;;;;;;;3.78;1.92;;;25.70;90.60;;;;;;5084075;28;20029;-55
2023/01/03 12:25:25;;;;;;;4.93;1.55;;;25.70;90.60;;;;;;5102553;28;20039;-55
2023/01/03 12:28:10;;;;;;;4.28;1.67;;;25.70;90.70;;;;;;5084185;28;20328;-55
2023/01/03 12:31:01;;;;;;;3.63;1.67;;;25.70;90.70;;;;;;5103687;28;20038;-57
2023/01/03 12:33:45;;;;;;;4.03;1.70;;;25.70;90.60;;;;;;5104552;28;20036;-57
2023/01/03 12:36:24;;;;;;;5.45;1.60;;;25.80;90.60;;;;;;5104149;28;20087;-59
2023/01/03 12:39:21;;;;;;;4.80;1.63;;;25.80;90.70;;;;;;5104421;28;20032;-57
2023/01/03 12:42:12;;;;;;;7.25;1.98;;;25.80;90.70;;;;;;5103979;28;20020;-53
2023/01/03 12:44:44;;;;;;;8.20;1.92;;;25.80;90.70;;;;;;5103400;28;20067;-58
2023/01/03 12:47:37;;;;;;;3.65;1.80;;;25.80;90.80;;;;;;5104159;28;20122;-57
2023/01/03 12:50:06;;;;;;;;;;;25.80;90.80;;;;;;5091879;28;20048;-57
2023/01/03 12:52:36;;;;;;;5.43;1.95;;;25.80;90.80;;;;;;5104150;28;20260;-57
2023/01/03 12:55:07;;;;;;;5.43;2.00;;;25.80;90.90;;;;;;5103117;28;20091;-57
2023/01/03 12:57:59;;;;;;;6.22;1.95;;;25.80;90.90;;;;;;5104248;28;20422;-61
2023/01/03 13:00:40;;;;;;;6.45;2.15;;;25.80;91.00;;;;;;5103713;28;20075;-58
2023/01/03 13:03:28;;;;;;;6.97;2.00;;;25.80;91.20;;;;;;5106899;28;20126;-59
2023/01/03 13:06:09;;;;;;;3.92;1.92;;;25.80;91.20;;;;;;5107991;28;20212;-58
2023/01/03 13:09:09;;;;;;;4.88;2.30;;;25.80;91.20;;;;;;5108230;28;20035;-58
2023/01/03 13:11:49;;;;;;;6.55;2.50;;;25.90;91.20;;;;;;5090327;28;20066;-54
2023/01/03 13:14:27;;;;;;;8.93;3.10;;;25.90;91.30;;;;;;5107798;28;20019;-58
2023/01/03 13:17:03;;;;;;;5.95;2.80;;;25.90;91.30;;;;;;5107760;28;20043;-58
2023/01/03 13:19:35;;;;;;;7.32;2.88;;;25.90;91.50;;;;;;5107731;28;20024;-58
2023/01/03 13:22:21;;;;;;;13.18;2.70;;;25.90;91.20;;;;;;5107809;28;20264;-59
2023/01/03 13:24:52;;;;;;;6.22;2.42;;;25.90;91.20;;;;;;5107645;28;20016;-56
2023/01/03 13:27:24;;;;;;;7.30;2.42;;;25.90;91.10;;;;;;5107576;28;20077;-57
2023/01/03 13:29:57;;;;;;;5.72;2.83;;;25.90;91.10;;;;;;5106758;28;20020;-57
2023/01/03 13:32:29;;;;;;;6.45;2.75;;;25.90;91.20;;;;;;5107552;28;20058;-57
2023/01/03 13:34:56;;;;;;;8.60;2.78;;;25.90;91.10;;;;;;5107254;28;20024;-56
2023/01/03 13:37:46;;;;;;;9.15;2.85;;;26.00;91.10;;;;;;5107582;28;20036;-55
2023/01/03 13:40:19;;;;;;;7.07;2.75;;;26.00;91.10;;;;;;5088517;28;20028;-57
2023/01/03 13:42:46;;;;;;;6.80;2.50;;;25.90;90.90;;;;;;5107747;28;20035;-57
2023/01/03 13:45:18;;;;;;;9.35;3.30;;;26.00;90.90;;;;;;5107234;28;20092;-55
2023/01/03 13:47:51;;;;;;;5.28;3.30;;;26.00;90.90;;;;;;5107326;28;20035;-57
2023/01/03 13:50:34;;;;;;;15.25;3.90;;;26.00;90.80;;;;;;5104807;28;20024;-54
2023/01/03 13:53:11;;;;;;;22.20;4.53;;;26.10;90.90;;;;;;5107125;28;20093;-55
2023/01/03 13:55:46;;;;;;;9.93;3.75;;;26.10;90.90;;;;;;5107059;28;20258;-58
2023/01/03 13:58:28;;;;;;;12.25;3.85;;;26.10;91.00;;;;;;5106880;28;20077;-57
2023/01/03 14:01:02;;;;;;;13.23;3.05;;;26.10;91.00;;;;;;5106323;28;20016;-56
2023/01/03 14:03:39;;;;;;;8.20;3.05;;;26.10;91.00;;;;;;5086875;28;20091;-58
2023/01/03 14:06:14;;;;;;;7.55;3.22;;;26.10;90.90;;;;;;5094601;28;20028;-56
2023/01/03 14:09:08;;;;;;;7.80;2.80;;;26.20;90.90;;;;;;5101949;28;20028;-59
2023/01/03 14:12:07;;;;;;;11.20;3.90;;;26.20;90.80;;;;;;5099899;28;20030;-54
2023/01/03 14:14:38;;;;;;;15.52;4.90;;;26.20;90.80;;;;;;5112591;28;20030;-56
2023/01/03 14:17:13;;;;;;;19.42;6.10;;;26.20;90.90;;;;;;5109426;28;20040;-55
2023/01/03 14:19:44;;;;;;;21.83;6.68;;;26.20;90.90;;;;;;5095200;28;20035;-57
2023/01/03 14:22:22;;;;;;;24.15;6.13;;;26.20;90.90;;;;;;5086915;28;20048;-56
2023/01/03 14:24:51;;;;;;;18.23;5.40;;;26.20;90.90;;;;;;5086280;28;20035;-54